Terminal Aerodrome Forecast
Issued by NWS

Home | Current Version | Previous Version | Text Only | Print | Product List | Glossary On
Versions: 1 2 3 4 5 6 7 8 9 10 11 12 13 14 15 16 17 18 19 20 21
000
FTAK31 PANC 252326
TAFADQ
TAF
PADQ 252326Z 2600/2624 06011KT P6SM SCT025 OVC040
     FM260600 04015G22KT P6SM -RA SCT015 OVC025
     FM260900 04020G28KT 3SM -RA BR SCT007 OVC015
     FM261500 01022G30KT 6SM -SHRA BR SCT007 OVC015=

USA.gov is the U.S. government's official web portal to all federal, state and local government web resources and services.